Time;durP1;ratioP1;P1;durP2;ratioP2;P2;SDS_P1;SDS_P2;PMS_P1;PMS_P2;Temp;Humidity;BMP_temperature;BMP_pressure;BME280_temperature;BME280_humidity;BME280_pressure;Samples;Min_cycle;Max_cycle;Signal;HPM_P1;HPM_P2
2022/12/17 13:06:12;;;;;;;87.28;44.78;;;;;;;;;;5027421;28;20076;-76
2022/12/17 13:08:38;;;;;;;82.82;43.95;;;;;;;;;;5012650;28;20065;-78
2022/12/17 13:11:23;;;;;;;86.95;45.47;;;;;;;;;;5025640;28;20047;-78
2022/12/17 13:13:54;;;;;;;84.80;45.03;;;;;;;;;;5024077;28;20124;-78
2022/12/17 13:16:39;;;;;;;82.63;44.28;;;;;;;;;;5007330;28;20079;-76
2022/12/17 13:19:24;;;;;;;83.90;44.15;;;;;;;;;;5023149;28;20095;-76
2022/12/17 13:21:50;;;;;;;86.22;43.70;;;;;;;;;;5023530;28;20049;-77
2022/12/17 13:24:24;;;;;;;84.20;43.75;;;;;;;;;;5024305;28;20493;-78
2022/12/17 13:26:50;;;;;;;85.43;44.45;;;;;;;;;;5023266;28;20041;-78
2022/12/17 13:29:19;;;;;;;84.45;43.47;;;;;;;;;;5013242;28;20072;-78
2022/12/17 13:32:03;;;;;;;89.90;45.47;;;;;;;;;;5024776;28;20460;-78
2022/12/17 13:34:38;;;;;;;88.60;43.47;;;;;;;;;;5025262;28;20181;-78
2022/12/17 13:37:04;;;;;;;89.50;44.50;;;;;;;;;;5007387;28;20046;-77
2022/12/17 13:39:30;;;;;;;83.75;43.97;;;;;;;;;;5019206;28;20041;-78
2022/12/17 13:41:56;;;;;;;83.80;42.47;;;;;;;;;;5017278;28;20171;-77
2022/12/17 13:44:28;;;;;;;90.45;45.97;;;;;;;;;;5013949;28;20048;-79
2022/12/17 13:46:55;;;;;;;83.93;44.38;;;;;;;;;;5020148;28;20037;-77
2022/12/17 13:49:22;;;;;;;80.47;42.05;;;;;;;;;;5025544;28;20047;-77
2022/12/17 13:51:59;;;;;;;82.03;43.55;;;;;;;;;;5025243;28;20049;-78
2022/12/17 13:54:25;;;;;;;84.50;43.22;;;;;;;;;;5020597;28;20132;-77
2022/12/17 13:56:53;;;;;;;83.20;43.85;;;;;;;;;;5029794;28;20045;-77
2022/12/17 13:59:21;;;;;;;85.43;44.42;;;;;;;;;;5031590;28;20045;-76
2022/12/17 14:01:51;;;;;;;81.57;42.85;;;;;;;;;;5014662;28;20061;-79
2022/12/17 14:04:28;;;;;;;84.65;44.15;;;;;;;;;;5033091;28;20044;-78
2022/12/17 14:06:56;;;;;;;84.07;42.97;;;;;;;;;;5013606;28;20069;-79
2022/12/17 14:09:23;;;;;;;81.22;41.00;;;;;;;;;;5030835;28;20103;-77
2022/12/17 14:14:40;;;;;;;85.93;42.67;;;;;;;;;;5029232;28;20040;-78
2022/12/17 14:17:06;;;;;;;88.63;42.58;;;;;;;;;;5026096;28;20459;-78
2022/12/17 14:19:33;;;;;;;90.05;42.65;;;;;;;;;;5011478;28;20056;-78
2022/12/17 14:22:00;;;;;;;83.20;41.80;;;;;;;;;;5012707;28;20092;-77
2022/12/17 14:24:28;;;;;;;88.13;41.15;;;;;;;;;;5024713;28;20401;-77
2022/12/17 14:26:59;;;;;;;80.20;40.97;;;;;;;;;;5023487;28;20095;-76
2022/12/17 14:29:26;;;;;;;84.00;40.80;;;;;;;;;;5026601;28;20129;-77
2022/12/17 14:31:56;;;;;;;88.90;41.72;;;;;;;;;;5027403;28;20045;-77
2022/12/17 14:34:22;;;;;;;83.28;39.60;;;;;;;;;;5025910;28;20161;-76
2022/12/17 14:36:53;;;;;;;88.57;41.05;;;;;;;;;;5028617;28;20045;-76
2022/12/17 14:39:24;;;;;;;85.28;41.95;;;;;;;;;;5021374;28;20037;-76
2022/12/17 14:44:37;;;;;;;89.68;40.63;;;;;;;;;;5025017;28;20492;-76
2022/12/17 14:47:07;;;;;;;91.57;41.75;;;;;;;;;;5024161;28;20079;-76
2022/12/17 14:49:33;;;;;;;90.70;40.13;;;;;;;;;;5024370;28;20064;-77
2022/12/17 14:52:00;;;;;;;87.05;39.92;;;;;;;;;;5024550;28;20053;-78
2022/12/17 14:54:30;;;;;;;92.82;40.20;;;;;;;;;;5024109;28;20045;-75
2022/12/17 14:56:57;;;;;;;87.75;40.63;;;;;;;;;;5008982;28;20099;-78
2022/12/17 14:59:34;;;;;;;90.88;39.45;;;;;;;;;;5025560;28;20087;-75
2022/12/17 15:02:02;;;;;;;92.88;40.35;;;;;;;;;;5030164;28;20139;-77
2022/12/17 15:04:29;;;;;;;87.38;39.75;;;;;;;;;;5023752;28;20042;-77
2022/12/17 15:06:55;;;;;;;87.60;38.90;;;;;;;;;;5028688;28;20068;-76
2022/12/17 15:09:21;;;;;;;85.43;38.55;;;;;;;;;;5021631;28;20037;-75
2022/12/17 15:11:48;;;;;;;92.28;39.45;;;;;;;;;;5017689;28;20047;-75
2022/12/17 15:14:14;;;;;;;84.78;37.13;;;;;;;;;;5005804;28;20129;-76
2022/12/17 15:16:40;;;;;;;90.53;40.00;;;;;;;;;;5024306;28;20816;-76
2022/12/17 15:19:06;;;;;;;94.55;38.88;;;;;;;;;;5024090;28;20171;-75
2022/12/17 15:21:32;;;;;;;94.43;38.47;;;;;;;;;;5020388;28;20140;-76
2022/12/17 15:23:58;;;;;;;95.20;37.65;;;;;;;;;;5021614;28;20045;-76
2022/12/17 15:26:24;;;;;;;96.60;38.75;;;;;;;;;;5016843;28;20065;-75
2022/12/17 15:28:50;;;;;;;95.03;40.22;;;;;;;;;;5027450;28;20512;-75
2022/12/17 15:31:16;;;;;;;97.72;38.60;;;;;;;;;;5029018;28;20046;-76
2022/12/17 15:33:42;;;;;;;99.15;40.78;;;;;;;;;;5026868;28;20065;-76
2022/12/17 15:36:09;;;;;;;96.30;40.42;;;;;;;;;;5029562;28;20059;-76
2022/12/17 15:38:36;;;;;;;104.00;39.80;;;;;;;;;;5020872;28;20149;-77
2022/12/17 15:43:09;;;;;;;100.32;40.17;;;;;;;;;;5020354;28;20045;-76
2022/12/17 15:43:49;;;;;;;100.38;39.53;;;;;;;;;;5023713;28;20088;-76
2022/12/17 15:46:15;;;;;;;95.97;38.97;;;;;;;;;;5020945;28;20558;-77
2022/12/17 15:48:42;;;;;;;100.22;38.85;;;;;;;;;;5024230;28;20065;-76
2022/12/17 15:51:08;;;;;;;107.55;40.50;;;;;;;;;;5021132;28;20444;-77
2022/12/17 15:53:34;;;;;;;106.38;41.60;;;;;;;;;;5012324;28;20037;-75
2022/12/17 15:56:01;;;;;;;119.25;40.15;;;;;;;;;;5006629;28;20042;-75
2022/12/17 15:58:27;;;;;;;118.63;41.33;;;;;;;;;;5027609;28;20052;-76
2022/12/17 16:00:53;;;;;;;103.85;38.45;;;;;;;;;;5021739;28;20172;-75
2022/12/17 16:03:19;;;;;;;100.15;38.25;;;;;;;;;;5023707;28;20137;-76
2022/12/17 16:05:45;;;;;;;105.07;40.42;;;;;;;;;;5021443;28;20057;-77
2022/12/17 16:08:11;;;;;;;110.78;40.67;;;;;;;;;;5027205;28;20042;-76
2022/12/17 16:10:37;;;;;;;102.05;38.58;;;;;;;;;;5025628;28;20053;-77
2022/12/17 16:13:04;;;;;;;102.18;39.53;;;;;;;;;;5024605;28;20049;-77
2022/12/17 16:15:30;;;;;;;102.15;38.25;;;;;;;;;;5025743;28;20045;-76
2022/12/17 16:17:56;;;;;;;112.68;41.00;;;;;;;;;;5026015;28;20041;-78
2022/12/17 16:20:22;;;;;;;111.32;40.55;;;;;;;;;;5028637;28;20034;-76
2022/12/17 16:22:48;;;;;;;108.00;40.80;;;;;;;;;;5021651;28;20172;-76
2022/12/17 16:25:14;;;;;;;116.43;41.08;;;;;;;;;;5023346;28;20137;-77
2022/12/17 16:27:40;;;;;;;104.90;37.88;;;;;;;;;;5018108;28;20156;-76
2022/12/17 16:30:07;;;;;;;104.03;37.92;;;;;;;;;;5005004;28;20056;-74
2022/12/17 16:32:32;;;;;;;110.57;39.75;;;;;;;;;;5023763;28;20060;-75
2022/12/17 16:34:59;;;;;;;105.75;40.28;;;;;;;;;;5023027;28;20045;-75
2022/12/17 16:37:25;;;;;;;109.78;40.47;;;;;;;;;;5023420;28;20048;-75
2022/12/17 16:39:51;;;;;;;104.63;39.13;;;;;;;;;;5022486;28;20045;-74
2022/12/17 16:42:17;;;;;;;105.45;39.65;;;;;;;;;;5020060;28;21693;-76
2022/12/17 16:44:43;;;;;;;106.40;39.28;;;;;;;;;;5021002;28;20096;-74
2022/12/17 16:47:09;;;;;;;105.88;40.17;;;;;;;;;;5007200;28;20037;-75
2022/12/17 16:49:35;;;;;;;111.13;40.03;;;;;;;;;;5020658;28;20041;-74
2022/12/17 16:52:02;;;;;;;109.43;40.15;;;;;;;;;;5028137;28;20443;-76
2022/12/17 16:54:29;;;;;;;115.05;40.53;;;;;;;;;;5023951;28;20128;-75
2022/12/17 16:56:55;;;;;;;117.43;41.42;;;;;;;;;;5024143;28;20179;-74
2022/12/17 16:59:22;;;;;;;111.78;41.72;;;;;;;;;;5006972;28;20611;-74
2022/12/17 17:01:49;;;;;;;110.05;39.78;;;;;;;;;;5024536;28;20082;-74
2022/12/17 17:04:16;;;;;;;118.93;41.47;;;;;;;;;;5026468;28;20041;-75
2022/12/17 17:06:43;;;;;;;121.90;42.55;;;;;;;;;;5025421;28;20041;-75
2022/12/17 17:09:10;;;;;;;115.93;42.13;;;;;;;;;;5026606;28;20465;-74
2022/12/17 17:11:36;;;;;;;110.38;39.67;;;;;;;;;;5025598;28;20133;-74
2022/12/17 17:14:02;;;;;;;126.78;43.15;;;;;;;;;;5030340;28;20098;-75
2022/12/17 17:16:29;;;;;;;123.22;41.42;;;;;;;;;;5025043;28;20080;-73
2022/12/17 17:18:55;;;;;;;115.60;42.50;;;;;;;;;;5027310;28;20070;-75
2022/12/17 17:21:29;;;;;;;111.82;41.58;;;;;;;;;;5025335;28;20045;-75
2022/12/17 17:23:56;;;;;;;119.00;42.65;;;;;;;;;;5024636;28;20052;-69
2022/12/17 17:26:23;;;;;;;109.97;42.20;;;;;;;;;;5025861;28;20049;-71
2022/12/17 17:28:50;;;;;;;115.68;42.28;;;;;;;;;;5022637;28;20053;-69
2022/12/17 17:31:17;;;;;;;114.38;43.38;;;;;;;;;;5020421;28;20064;-69
2022/12/17 17:33:47;;;;;;;125.05;44.53;;;;;;;;;;5028970;28;20080;-69
2022/12/17 17:36:18;;;;;;;114.85;43.03;;;;;;;;;;5029644;28;20591;-69
2022/12/17 17:38:45;;;;;;;113.97;43.17;;;;;;;;;;5028194;28;20072;-70
2022/12/17 17:41:12;;;;;;;121.07;43.72;;;;;;;;;;5008981;28;20054;-70
2022/12/17 17:43:38;;;;;;;112.55;43.80;;;;;;;;;;5023295;28;20092;-71
2022/12/17 17:46:09;;;;;;;115.80;45.25;;;;;;;;;;5011957;28;20042;-70
2022/12/17 17:48:35;;;;;;;118.53;46.17;;;;;;;;;;5027382;28;20037;-68
2022/12/17 17:51:03;;;;;;;131.18;48.65;;;;;;;;;;5028900;28;20061;-69
2022/12/17 17:53:29;;;;;;;118.28;47.72;;;;;;;;;;5029104;28;20099;-71
2022/12/17 17:56:01;;;;;;;118.78;45.92;;;;;;;;;;5029306;28;20123;-71
2022/12/17 17:58:27;;;;;;;94.97;36.20;;;;;;;;;;5030323;28;20045;-70
2022/12/17 18:00:53;;;;;;;114.78;45.90;;;;;;;;;;5024407;28;20131;-71
2022/12/17 18:03:19;;;;;;;111.38;44.70;;;;;;;;;;5016025;28;20065;-71
2022/12/17 18:05:45;;;;;;;119.10;47.40;;;;;;;;;;5015067;28;20443;-72
2022/12/17 18:08:11;;;;;;;113.43;46.67;;;;;;;;;;5021243;28;20056;-72
2022/12/17 18:10:37;;;;;;;115.28;46.00;;;;;;;;;;5029297;28;20083;-72
2022/12/17 18:15:48;;;;;;;109.13;44.05;;;;;;;;;;5017647;28;20499;-70
2022/12/17 18:18:14;;;;;;;107.85;45.33;;;;;;;;;;5029762;28;20466;-70
2022/12/17 18:20:40;;;;;;;112.45;48.55;;;;;;;;;;5030249;28;20128;-70
2022/12/17 18:23:06;;;;;;;108.07;46.08;;;;;;;;;;5029749;28;20420;-70
2022/12/17 18:25:34;;;;;;;110.15;46.53;;;;;;;;;;5024883;28;20083;-70
2022/12/17 18:28:00;;;;;;;113.90;46.05;;;;;;;;;;5028906;28;20079;-72
2022/12/17 18:30:26;;;;;;;107.10;45.15;;;;;;;;;;5026761;28;20053;-71
2022/12/17 18:32:52;;;;;;;93.10;43.75;;;;;;;;;;5011788;28;20049;-72
2022/12/17 18:35:18;;;;;;;97.18;43.85;;;;;;;;;;5028747;28;20106;-73
2022/12/17 18:37:44;;;;;;;94.15;44.72;;;;;;;;;;5020731;28;20061;-73
2022/12/17 18:40:10;;;;;;;99.13;46.33;;;;;;;;;;5015921;28;20492;-70
2022/12/17 18:45:21;;;;;;;102.00;47.70;;;;;;;;;;5026292;28;20046;-70
2022/12/17 18:47:47;;;;;;;96.88;44.28;;;;;;;;;;5023842;28;20052;-73
2022/12/17 18:50:13;;;;;;;102.47;46.05;;;;;;;;;;5020474;28;20080;-73
2022/12/17 18:52:39;;;;;;;99.90;46.78;;;;;;;;;;5006758;28;20118;-73
2022/12/17 18:55:06;;;;;;;101.38;47.13;;;;;;;;;;5028155;28;20052;-71
2022/12/17 18:57:32;;;;;;;102.97;48.85;;;;;;;;;;5029529;28;20120;-73
2022/12/17 18:59:58;;;;;;;104.35;47.72;;;;;;;;;;5028781;28;20128;-71
2022/12/17 19:02:23;;;;;;;107.13;50.67;;;;;;;;;;5002076;28;20511;-71
2022/12/17 19:04:49;;;;;;;127.25;52.70;;;;;;;;;;5025671;28;20037;-71
2022/12/17 19:07:15;;;;;;;118.97;51.70;;;;;;;;;;5024965;28;20128;-71
2022/12/17 19:09:42;;;;;;;118.63;53.85;;;;;;;;;;5024859;28;20397;-71
2022/12/17 19:12:08;;;;;;;111.78;52.45;;;;;;;;;;5028226;28;20128;-70
2022/12/17 19:14:35;;;;;;;113.60;52.22;;;;;;;;;;5026649;28;20107;-71
2022/12/17 19:17:01;;;;;;;110.45;48.72;;;;;;;;;;5028458;28;20445;-72
2022/12/17 19:19:27;;;;;;;117.25;52.13;;;;;;;;;;5022977;28;20053;-71
2022/12/17 19:21:54;;;;;;;121.30;50.85;;;;;;;;;;5026349;28;20068;-71
2022/12/17 19:24:21;;;;;;;112.57;50.67;;;;;;;;;;5028813;28;20087;-73
2022/12/17 19:26:47;;;;;;;111.40;53.33;;;;;;;;;;5027927;28;20084;-71
2022/12/17 19:29:13;;;;;;;108.65;49.75;;;;;;;;;;5021668;28;20045;-70
2022/12/17 19:31:40;;;;;;;109.18;49.83;;;;;;;;;;5027332;28;20111;-72
2022/12/17 19:34:07;;;;;;;110.82;51.25;;;;;;;;;;5022450;28;20049;-74
2022/12/17 19:36:34;;;;;;;118.80;51.65;;;;;;;;;;5018252;28;20136;-71
2022/12/17 19:39:01;;;;;;;112.20;50.25;;;;;;;;;;5028810;28;20053;-72
2022/12/17 19:41:28;;;;;;;117.22;51.08;;;;;;;;;;5028261;28;20069;-73
2022/12/17 19:43:55;;;;;;;122.15;52.13;;;;;;;;;;5029372;28;20069;-72
2022/12/17 19:46:22;;;;;;;114.47;50.33;;;;;;;;;;5028375;28;20040;-70
2022/12/17 19:48:48;;;;;;;121.72;50.58;;;;;;;;;;5028543;28;20078;-70
2022/12/17 19:51:16;;;;;;;107.53;48.83;;;;;;;;;;5012370;28;20056;-72
2022/12/17 19:53:42;;;;;;;104.68;47.80;;;;;;;;;;5011012;28;20065;-72
2022/12/17 19:56:13;;;;;;;116.63;48.65;;;;;;;;;;5024855;28;20046;-72
2022/12/17 19:58:40;;;;;;;106.80;47.33;;;;;;;;;;5028830;28;20037;-72
2022/12/17 20:01:10;;;;;;;108.47;49.20;;;;;;;;;;5024163;28;20716;-72
2022/12/17 20:03:36;;;;;;;114.95;49.15;;;;;;;;;;5008210;28;20092;-71
2022/12/17 20:06:02;;;;;;;113.45;50.03;;;;;;;;;;5023084;28;20052;-70
2022/12/17 20:08:29;;;;;;;118.00;51.40;;;;;;;;;;5021737;28;20432;-72
2022/12/17 20:10:54;;;;;;;122.10;51.30;;;;;;;;;;5028039;28;20114;-72
2022/12/17 20:13:20;;;;;;;125.45;50.97;;;;;;;;;;5005612;28;20129;-73
2022/12/17 20:15:46;;;;;;;110.30;50.03;;;;;;;;;;5019757;28;20045;-70
2022/12/17 20:18:12;;;;;;;116.90;48.53;;;;;;;;;;5031897;28;20579;-69
2022/12/17 20:20:38;;;;;;;108.07;48.50;;;;;;;;;;5032374;28;20176;-70
2022/12/17 20:23:04;;;;;;;112.05;47.25;;;;;;;;;;5031973;28;20049;-72
2022/12/17 20:25:30;;;;;;;120.45;49.15;;;;;;;;;;5019401;28;20748;-70
2022/12/17 20:27:56;;;;;;;118.80;49.70;;;;;;;;;;5032044;28;20107;-72
2022/12/17 20:30:22;;;;;;;108.78;47.45;;;;;;;;;;5031993;28;20468;-72
2022/12/17 20:32:52;;;;;;;106.18;47.35;;;;;;;;;;5030584;28;20500;-70
2022/12/17 20:35:18;;;;;;;110.53;46.85;;;;;;;;;;5045957;28;20132;-73
2022/12/17 20:37:44;;;;;;;108.45;45.92;;;;;;;;;;5030535;28;20063;-73
2022/12/17 20:40:10;;;;;;;116.80;47.90;;;;;;;;;;5031512;28;20077;-71
2022/12/17 20:42:36;;;;;;;121.22;48.80;;;;;;;;;;5031629;28;20049;-70
2022/12/17 20:45:03;;;;;;;124.15;50.13;;;;;;;;;;5025589;28;20049;-73
2022/12/17 20:47:29;;;;;;;131.00;51.92;;;;;;;;;;5024187;28;20069;-73
2022/12/17 20:49:55;;;;;;;129.80;49.85;;;;;;;;;;5017879;28;20053;-72
2022/12/17 20:52:21;;;;;;;132.20;48.70;;;;;;;;;;5031912;28;20045;-71
2022/12/17 20:54:48;;;;;;;117.32;48.33;;;;;;;;;;5026429;28;20041;-73
2022/12/17 20:57:14;;;;;;;130.13;48.67;;;;;;;;;;5022250;28;20057;-70
2022/12/17 20:59:40;;;;;;;125.80;49.80;;;;;;;;;;5028495;28;20081;-70
2022/12/17 21:02:06;;;;;;;131.38;48.03;;;;;;;;;;5028329;28;20100;-70
2022/12/17 21:04:32;;;;;;;134.82;49.42;;;;;;;;;;5029291;28;20072;-74
2022/12/17 21:06:58;;;;;;;130.73;48.60;;;;;;;;;;5029071;28;20064;-73
2022/12/17 21:09:24;;;;;;;123.43;46.28;;;;;;;;;;5030511;28;20049;-72
2022/12/17 21:11:50;;;;;;;132.25;48.55;;;;;;;;;;5029728;28;20045;-74
2022/12/17 21:14:17;;;;;;;129.07;48.67;;;;;;;;;;5025093;28;20049;-73
2022/12/17 21:16:44;;;;;;;129.50;48.35;;;;;;;;;;5024873;28;20041;-73
2022/12/17 21:19:13;;;;;;;118.32;44.10;;;;;;;;;;5010145;28;20099;-72
2022/12/17 21:21:39;;;;;;;110.15;42.75;;;;;;;;;;5009533;28;20120;-72
2022/12/17 21:24:05;;;;;;;105.18;41.00;;;;;;;;;;5025112;28;20112;-71
2022/12/17 21:26:32;;;;;;;106.45;42.40;;;;;;;;;;5026989;28;20084;-71
2022/12/17 21:28:59;;;;;;;115.97;44.22;;;;;;;;;;5026053;28;20040;-71
2022/12/17 21:31:33;;;;;;;117.57;44.67;;;;;;;;;;5021351;28;20041;-71
2022/12/17 21:34:01;;;;;;;124.65;43.95;;;;;;;;;;5024233;28;20048;-74
2022/12/17 21:36:27;;;;;;;122.80;46.55;;;;;;;;;;5023029;28;20131;-75
2022/12/17 21:38:53;;;;;;;122.43;44.28;;;;;;;;;;5020588;28;20156;-73
2022/12/17 21:41:24;;;;;;;132.93;47.88;;;;;;;;;;5023698;28;20045;-74
2022/12/17 21:43:54;;;;;;;129.48;47.78;;;;;;;;;;5011731;28;20033;-74
2022/12/17 21:46:21;;;;;;;122.97;46.85;;;;;;;;;;5025775;28;20075;-74
2022/12/17 21:48:46;;;;;;;127.20;47.72;;;;;;;;;;5026815;28;20037;-74
2022/12/17 21:51:13;;;;;;;129.50;48.63;;;;;;;;;;5024216;28;20052;-72
2022/12/17 21:53:43;;;;;;;147.85;48.67;;;;;;;;;;5026505;28;20050;-72
2022/12/17 21:56:11;;;;;;;132.35;46.35;;;;;;;;;;5026113;28;20045;-71
2022/12/17 21:58:38;;;;;;;131.98;46.45;;;;;;;;;;5026940;28;20049;-73
2022/12/17 22:01:08;;;;;;;136.70;45.75;;;;;;;;;;5021580;28;20472;-72
2022/12/17 22:03:34;;;;;;;130.43;45.65;;;;;;;;;;5027196;28;20041;-74
2022/12/17 22:06:04;;;;;;;133.93;45.00;;;;;;;;;;5024702;28;20044;-72
2022/12/17 22:08:30;;;;;;;127.47;44.92;;;;;;;;;;5026819;28;20087;-73
2022/12/17 22:10:56;;;;;;;134.35;45.95;;;;;;;;;;5025364;28;20049;-74
2022/12/17 22:16:07;;;;;;;147.52;45.20;;;;;;;;;;5024714;28;20045;-72
2022/12/17 22:18:33;;;;;;;125.97;43.67;;;;;;;;;;5021095;28;20432;-72
2022/12/17 22:20:59;;;;;;;142.40;43.42;;;;;;;;;;5022941;28;20053;-73
2022/12/17 22:23:26;;;;;;;129.40;44.05;;;;;;;;;;5026808;28;20038;-72
2022/12/17 22:25:52;;;;;;;132.80;43.42;;;;;;;;;;5023207;28;20436;-72
2022/12/17 22:28:18;;;;;;;124.13;42.15;;;;;;;;;;5024104;28;20084;-71
2022/12/17 22:33:28;;;;;;;149.98;44.03;;;;;;;;;;5023889;28;20630;-73
2022/12/17 22:35:59;;;;;;;151.00;46.15;;;;;;;;;;5027387;28;20045;-73
2022/12/17 22:38:25;;;;;;;140.80;45.78;;;;;;;;;;5024509;28;20132;-73
2022/12/17 22:40:51;;;;;;;138.10;45.40;;;;;;;;;;5024908;28;20634;-72
2022/12/17 22:43:28;;;;;;;141.88;45.28;;;;;;;;;;5007031;28;20037;-72
2022/12/17 22:46:02;;;;;;;119.63;41.72;;;;;;;;;;5024036;28;20045;-72
2022/12/17 22:48:29;;;;;;;129.25;43.30;;;;;;;;;;5024902;28;20056;-72
2022/12/17 22:50:55;;;;;;;120.05;40.65;;;;;;;;;;5024919;28;20510;-72
2022/12/17 22:53:22;;;;;;;119.85;41.00;;;;;;;;;;5023649;28;20107;-73
2022/12/17 22:55:48;;;;;;;119.90;40.88;;;;;;;;;;5023565;28;20048;-74
2022/12/17 22:58:14;;;;;;;116.80;40.17;;;;;;;;;;5023536;28;20187;-73
2022/12/17 23:00:40;;;;;;;112.38;41.95;;;;;;;;;;5023004;28;20612;-72
2022/12/17 23:03:06;;;;;;;110.93;39.13;;;;;;;;;;5029634;28;20048;-71
2022/12/17 23:05:32;;;;;;;101.50;37.65;;;;;;;;;;5021278;28;20060;-72
2022/12/17 23:07:59;;;;;;;117.13;40.80;;;;;;;;;;5022277;28;20049;-72
2022/12/17 23:10:26;;;;;;;117.18;42.55;;;;;;;;;;5026281;28;20046;-73
2022/12/17 23:12:53;;;;;;;118.32;42.80;;;;;;;;;;5023230;28;20056;-72
2022/12/17 23:15:21;;;;;;;129.38;42.58;;;;;;;;;;5023416;28;20480;-72
2022/12/17 23:17:47;;;;;;;127.00;43.90;;;;;;;;;;5020300;28;20053;-73
2022/12/17 23:20:14;;;;;;;132.95;42.85;;;;;;;;;;5025229;28;20046;-72
2022/12/17 23:22:40;;;;;;;140.45;46.55;;;;;;;;;;5025975;28;20049;-74
2022/12/17 23:25:06;;;;;;;138.38;45.28;;;;;;;;;;5021234;28;20122;-72
2022/12/17 23:27:32;;;;;;;136.32;44.13;;;;;;;;;;5020920;28;20045;-73
2022/12/17 23:29:58;;;;;;;121.70;42.45;;;;;;;;;;5017079;28;20049;-73
2022/12/17 23:32:24;;;;;;;124.45;42.25;;;;;;;;;;5019552;28;20055;-71
2022/12/17 23:34:50;;;;;;;126.60;43.45;;;;;;;;;;5015550;28;20074;-73
2022/12/17 23:37:16;;;;;;;135.55;43.80;;;;;;;;;;5001711;28;20847;-74
2022/12/17 23:39:42;;;;;;;138.90;44.47;;;;;;;;;;5019293;28;20044;-72
2022/12/17 23:42:08;;;;;;;128.27;43.97;;;;;;;;;;5018053;28;20043;-71
2022/12/17 23:44:34;;;;;;;135.40;43.45;;;;;;;;;;5021382;28;20041;-72
2022/12/17 23:47:00;;;;;;;138.15;45.20;;;;;;;;;;5021522;28;20408;-72
2022/12/17 23:49:26;;;;;;;126.07;43.20;;;;;;;;;;5021123;28;20048;-73
2022/12/17 23:51:52;;;;;;;119.97;41.78;;;;;;;;;;5020832;28;20532;-72
2022/12/17 23:54:18;;;;;;;135.85;44.13;;;;;;;;;;5008381;28;20243;-72
2022/12/17 23:56:44;;;;;;;124.70;41.67;;;;;;;;;;5022575;28;20064;-73
2022/12/17 23:59:10;;;;;;;113.32;41.88;;;;;;;;;;5025434;28;20045;-73
